Baird, Texas
Current Conditions -  °F | °C
As of 12:52 AM on Friday 28 Nov 2014 (Local Time) from KABI Reporting Station
Clear Clear  
Wind Chill: 51°   Ceiling: Unl
Heat Index: 51°   Visibility: 10mi
Dew Point: 32°   Wind: 16mph
Humidity: 48%   Direction: 190°S
Pressure: 30.26"   Gusts: 24mph
Location:  32.39°N, 99.39°W
Report Text: KABI 280652Z 19014G21KT 10SM CLR 11/00 A3026 RMK AO2 PK WND 18026/0600 SLP239 T01060000
Loading
Personal Weather Stations






























Interactive Weather Map New forecast layout! Learn more

10-Day Weather Forecast

Advertisements
Track Severe Weather on mobile